Time;durP1;ratioP1;P1;durP2;ratioP2;P2;SDS_P1;SDS_P2;PMS_P1;PMS_P2;Temp;Humidity;BMP_temperature;BMP_pressure;BME280_temperature;BME280_humidity;BME280_pressure;Samples;Min_cycle;Max_cycle;Signal;HPM_P1;HPM_P2
2021/03/24 00:01:04;;;;;;;47.50;35.83;;;3.80;99.90;;;;;;5115310;27;20549;-74
2021/03/24 00:03:30;;;;;;;48.23;38.60;;;3.80;99.90;;;;;;5117209;28;20457;-74
2021/03/24 00:05:58;;;;;;;55.53;39.10;;;3.70;99.90;;;;;;5120277;28;20503;-75
2021/03/24 00:08:24;;;;;;;58.53;37.77;;;3.70;99.90;;;;;;5120932;28;20509;-73
2021/03/24 00:10:52;;;;;;;48.43;37.80;;;3.60;99.90;;;;;;5115197;28;20516;-75
2021/03/24 00:13:20;;;;;;;55.07;41.30;;;3.60;99.90;;;;;;5120141;28;22638;-77
2021/03/24 00:15:47;;;;;;;54.83;41.57;;;3.60;99.90;;;;;;5117851;28;20461;-74
2021/03/24 00:18:13;;;;;;;57.47;40.07;;;3.50;99.90;;;;;;5115990;28;20491;-76
2021/03/24 00:20:43;;;;;;;54.10;39.80;;;3.50;99.90;;;;;;5116914;28;20513;-76
2021/03/24 00:23:12;;;;;;;54.23;38.90;;;3.40;99.90;;;;;;5116457;28;20472;-76
2021/03/24 00:25:39;;;;;;;56.37;41.30;;;3.40;99.90;;;;;;5116679;28;20539;-75
2021/03/24 00:28:08;;;;;;;54.30;41.40;;;3.40;99.90;;;;;;5115592;28;20838;-77
2021/03/24 00:30:37;;;;;;;62.20;41.27;;;3.40;99.90;;;;;;5116291;28;20460;-73
2021/03/24 00:33:06;;;;;;;60.47;41.07;;;3.50;99.90;;;;;;5109220;28;20822;-75
2021/03/24 00:35:33;;;;;;;55.37;40.27;;;3.50;99.90;;;;;;5114704;28;20478;-74
2021/03/24 00:38:00;;;;;;;57.43;41.53;;;3.40;99.90;;;;;;5122538;28;20530;-76
2021/03/24 00:40:30;;;;;;;68.13;43.70;;;3.50;99.90;;;;;;5116933;28;20464;-74
2021/03/24 00:42:57;;;;;;;64.10;42.77;;;3.70;99.90;;;;;;5115111;28;20470;-75
2021/03/24 00:45:24;;;;;;;54.27;40.07;;;3.70;99.90;;;;;;5122706;27;20546;-75
2021/03/24 00:47:51;;;;;;;71.20;43.80;;;3.80;99.90;;;;;;5122856;27;20477;-74
2021/03/24 00:50:19;;;;;;;66.30;40.50;;;3.80;99.90;;;;;;5124249;27;20460;-76
2021/03/24 00:52:46;;;;;;;58.73;41.43;;;3.80;99.90;;;;;;5126942;27;20464;-76
2021/03/24 00:55:14;;;;;;;62.10;42.03;;;3.70;99.90;;;;;;5119728;27;20457;-77
2021/03/24 00:57:42;;;;;;;64.43;42.70;;;3.60;99.90;;;;;;5122927;27;20511;-78
2021/03/24 01:00:11;;;;;;;41.10;33.73;;;3.60;99.90;;;;;;5119969;27;20457;-76
2021/03/24 01:02:37;;;;;;;50.63;37.37;;;3.40;99.90;;;;;;5120384;27;20449;-76
2021/03/24 01:05:06;;;;;;;45.27;36.07;;;3.10;99.90;;;;;;5120547;27;21028;-74
2021/03/24 01:07:32;;;;;;;56.00;38.43;;;2.90;99.90;;;;;;5120751;27;20472;-77
2021/03/24 01:09:58;;;;;;;50.53;36.13;;;2.80;99.90;;;;;;5123605;27;20467;-76
2021/03/24 01:12:25;;;;;;;48.37;36.90;;;2.60;99.90;;;;;;5125362;27;20469;-74
2021/03/24 01:14:52;;;;;;;55.60;40.10;;;2.50;99.90;;;;;;5120252;27;20464;-77
2021/03/24 01:17:20;;;;;;;57.63;41.13;;;2.40;99.90;;;;;;5120079;27;20484;-74
2021/03/24 01:19:48;;;;;;;48.83;38.43;;;2.40;99.90;;;;;;5115207;27;20865;-74
2021/03/24 01:22:15;;;;;;;63.60;41.77;;;2.50;99.90;;;;;;5119073;27;21063;-77
2021/03/24 01:24:41;;;;;;;57.27;41.00;;;2.50;99.90;;;;;;5126114;27;20527;-73
2021/03/24 01:27:10;;;;;;;59.93;41.80;;;2.50;99.90;;;;;;5118872;27;20461;-74
2021/03/24 01:29:36;;;;;;;51.30;37.17;;;2.50;99.90;;;;;;5124136;27;20466;-76
2021/03/24 01:32:05;;;;;;;51.50;38.63;;;2.40;99.90;;;;;;5114501;27;20464;-73
2021/03/24 01:34:32;;;;;;;50.93;38.70;;;2.30;99.90;;;;;;5118765;27;20461;-75
2021/03/24 01:36:59;;;;;;;51.83;38.67;;;2.20;99.90;;;;;;5121963;27;20489;-76
2021/03/24 01:39:27;;;;;;;52.77;38.93;;;2.20;99.90;;;;;;5124549;27;20459;-71
2021/03/24 01:41:53;;;;;;;42.37;37.53;;;2.10;99.90;;;;;;5121679;27;20455;-77
2021/03/24 01:44:20;;;;;;;56.43;40.80;;;2.00;99.90;;;;;;5118709;27;20449;-76
2021/03/24 01:46:47;;;;;;;49.60;38.43;;;2.00;99.90;;;;;;5108016;27;20551;-73
2021/03/24 01:49:20;;;;;;;44.67;37.57;;;1.90;99.90;;;;;;5121057;27;20529;-76
2021/03/24 01:51:49;;;;;;;49.47;37.87;;;1.90;99.90;;;;;;5121805;27;20806;-75
2021/03/24 01:54:19;;;;;;;49.73;37.80;;;1.80;99.90;;;;;;5122246;27;20452;-74
2021/03/24 01:56:48;;;;;;;49.07;36.77;;;1.80;99.90;;;;;;5120698;27;20527;-75
2021/03/24 01:59:15;;;;;;;56.03;38.20;;;1.80;99.90;;;;;;5118281;27;20551;-75
2021/03/24 02:01:42;;;;;;;47.97;38.40;;;1.80;99.90;;;;;;5117980;27;20469;-76
2021/03/24 02:04:09;;;;;;;58.20;39.43;;;1.80;99.90;;;;;;5117302;27;20974;-77
2021/03/24 02:06:43;;;;;;;51.60;39.67;;;1.80;99.90;;;;;;5119829;27;20457;-74
2021/03/24 02:09:18;;;;;;;53.30;39.17;;;1.90;99.90;;;;;;5115096;27;20490;-74
2021/03/24 02:11:53;;;;;;;49.87;38.80;;;1.90;99.90;;;;;;5119541;27;20535;-73
2021/03/24 02:14:26;;;;;;;46.30;37.23;;;1.80;99.90;;;;;;5120472;27;20473;-75
2021/03/24 02:16:54;;;;;;;48.87;37.40;;;1.80;99.90;;;;;;5116089;27;20492;-75
2021/03/24 02:19:35;;;;;;;50.30;40.10;;;1.70;99.90;;;;;;5120928;27;20463;-77
2021/03/24 02:22:06;;;;;;;50.10;39.23;;;1.70;99.90;;;;;;5122525;27;20480;-76
2021/03/24 02:24:40;;;;;;;49.10;39.80;;;1.70;99.90;;;;;;5119727;27;20554;-72
2021/03/24 02:27:15;;;;;;;55.50;39.33;;;1.70;99.90;;;;;;5123280;27;20457;-76
2021/03/24 02:29:46;;;;;;;55.40;41.33;;;1.80;99.90;;;;;;5117955;27;20464;-75
2021/03/24 02:32:15;;;;;;;52.90;41.07;;;1.80;99.90;;;;;;5119595;27;20552;-75
2021/03/24 02:34:43;;;;;;;64.57;40.73;;;1.90;99.90;;;;;;5120053;27;20457;-76
2021/03/24 02:37:12;;;;;;;54.37;39.10;;;1.90;99.90;;;;;;5108884;27;20479;-73
2021/03/24 02:39:42;;;;;;;64.57;40.83;;;1.90;99.90;;;;;;5116983;27;20844;-74
2021/03/24 02:42:12;;;;;;;56.60;42.37;;;1.90;99.90;;;;;;5118382;27;20447;-73
2021/03/24 02:44:41;;;;;;;56.93;40.00;;;1.90;99.90;;;;;;5122279;27;20459;-73
2021/03/24 02:47:09;;;;;;;47.30;38.20;;;2.00;99.90;;;;;;5116438;27;20577;-74
2021/03/24 02:49:37;;;;;;;55.27;39.63;;;2.00;99.90;;;;;;5115575;27;20456;-73
2021/03/24 02:52:05;;;;;;;64.80;38.10;;;2.00;99.90;;;;;;5115622;27;20455;-73
2021/03/24 02:54:34;;;;;;;58.43;40.43;;;2.00;99.90;;;;;;5114079;27;20547;-73
2021/03/24 02:57:01;;;;;;;56.43;38.80;;;2.00;99.90;;;;;;5116462;27;20487;-74
2021/03/24 02:59:28;;;;;;;53.97;39.53;;;2.00;99.90;;;;;;5119617;27;20452;-74
2021/03/24 03:02:02;;;;;;;67.03;38.70;;;2.00;99.90;;;;;;5120499;27;20464;-74
2021/03/24 03:04:34;;;;;;;50.20;38.80;;;1.90;99.90;;;;;;5119104;27;20563;-74
2021/03/24 03:07:05;;;;;;;54.77;39.80;;;1.90;99.90;;;;;;5122115;27;20480;-73
2021/03/24 03:09:36;;;;;;;62.77;39.90;;;1.90;99.90;;;;;;5108217;27;20999;-73
2021/03/24 03:12:09;;;;;;;69.10;39.63;;;2.00;99.90;;;;;;5116423;27;20528;-73
2021/03/24 03:14:43;;;;;;;57.00;40.97;;;2.20;99.90;;;;;;5113297;27;20478;-74
2021/03/24 03:17:15;;;;;;;63.03;39.37;;;2.20;99.90;;;;;;5110676;27;20474;-73
2021/03/24 03:19:44;;;;;;;53.40;39.00;;;2.20;99.90;;;;;;5112199;27;21023;-73
2021/03/24 03:22:16;;;;;;;56.80;39.40;;;2.10;99.90;;;;;;5109043;27;20611;-73
2021/03/24 03:24:47;;;;;;;62.80;40.13;;;2.20;99.90;;;;;;5110132;27;20457;-73
2021/03/24 03:27:16;;;;;;;64.13;39.80;;;2.20;99.90;;;;;;5114066;27;20886;-73
2021/03/24 03:29:44;;;;;;;53.27;37.23;;;2.20;99.90;;;;;;5112860;27;20461;-73
2021/03/24 03:32:15;;;;;;;63.37;40.00;;;2.20;99.90;;;;;;5110023;27;20460;-73
2021/03/24 03:34:45;;;;;;;53.90;40.20;;;2.30;99.90;;;;;;5110170;27;20461;-73
2021/03/24 03:37:12;;;;;;;56.93;38.23;;;2.30;99.90;;;;;;5116144;27;20640;-74
2021/03/24 03:39:40;;;;;;;47.90;37.40;;;2.20;99.90;;;;;;5119995;27;20513;-73
2021/03/24 03:42:09;;;;;;;49.83;36.43;;;2.20;99.90;;;;;;5116743;27;20461;-73
2021/03/24 03:44:36;;;;;;;52.57;36.00;;;2.10;99.90;;;;;;5114762;27;20460;-73
2021/03/24 03:47:08;;;;;;;48.97;36.17;;;2.10;99.90;;;;;;5121840;27;20487;-73
2021/03/24 03:49:37;;;;;;;48.80;35.17;;;2.10;99.90;;;;;;5121567;27;20460;-73
2021/03/24 03:52:12;;;;;;;56.03;36.40;;;2.00;99.90;;;;;;5118951;27;20482;-74
2021/03/24 03:54:43;;;;;;;56.10;37.13;;;2.00;99.90;;;;;;5121536;27;20470;-73
2021/03/24 03:57:16;;;;;;;49.10;37.33;;;1.90;99.90;;;;;;5115553;27;20494;-73
2021/03/24 03:59:52;;;;;;;50.00;37.20;;;1.90;99.90;;;;;;5115594;28;20553;-73
2021/03/24 04:02:26;;;;;;;54.60;37.40;;;1.90;99.90;;;;;;5114024;27;20456;-73
2021/03/24 04:04:58;;;;;;;53.03;36.73;;;2.10;99.90;;;;;;5117881;28;20962;-73
2021/03/24 04:07:29;;;;;;;55.23;37.43;;;2.20;99.90;;;;;;5114796;28;20504;-73
2021/03/24 04:09:57;;;;;;;52.40;35.90;;;2.30;99.90;;;;;;5103766;28;20477;-73
2021/03/24 04:12:26;;;;;;;49.57;35.70;;;2.40;99.90;;;;;;5104503;28;20467;-73
2021/03/24 04:14:54;;;;;;;63.50;37.40;;;2.50;99.90;;;;;;5120243;28;20489;-73
2021/03/24 04:17:27;;;;;;;54.60;37.20;;;2.40;99.90;;;;;;5119133;28;20487;-73
2021/03/24 04:19:57;;;;;;;62.50;38.60;;;2.40;99.90;;;;;;5119729;27;20470;-73
2021/03/24 04:22:32;;;;;;;67.00;37.67;;;2.40;99.90;;;;;;5119265;27;20468;-73
2021/03/24 04:25:01;;;;;;;63.93;38.00;;;2.50;99.90;;;;;;5108643;27;20463;-73
2021/03/24 04:27:33;;;;;;;63.33;37.13;;;2.60;99.90;;;;;;5123029;27;20452;-73
2021/03/24 04:30:04;;;;;;;55.23;37.07;;;2.60;99.90;;;;;;5119850;27;20491;-73
2021/03/24 04:32:35;;;;;;;66.73;37.10;;;2.50;99.90;;;;;;5117971;27;20457;-73
2021/03/24 04:35:02;;;;;;;58.13;36.93;;;2.50;99.90;;;;;;5120205;27;20969;-73
2021/03/24 04:37:33;;;;;;;66.63;37.67;;;2.40;99.90;;;;;;5122058;27;20478;-73
2021/03/24 04:40:05;;;;;;;66.73;37.93;;;2.30;99.90;;;;;;5122060;27;20550;-73
2021/03/24 04:42:37;;;;;;;58.07;37.03;;;2.10;99.90;;;;;;5121564;27;20977;-73
2021/03/24 04:45:17;;;;;;;50.33;35.90;;;2.10;99.90;;;;;;5124972;27;20464;-73
2021/03/24 04:47:53;;;;;;;59.47;39.27;;;2.00;99.90;;;;;;5120488;27;20470;-73
2021/03/24 04:50:25;;;;;;;53.93;38.30;;;2.00;99.90;;;;;;5119930;27;20459;-73
2021/03/24 04:52:53;;;;;;;80.80;38.30;;;2.00;99.90;;;;;;5120444;27;20580;-73
2021/03/24 04:55:25;;;;;;;67.97;39.53;;;2.00;99.90;;;;;;5125049;27;20456;-73
2021/03/24 04:57:55;;;;;;;64.07;39.17;;;2.00;99.90;;;;;;5125099;27;20496;-73
2021/03/24 05:00:31;;;;;;;75.33;40.17;;;2.00;99.90;;;;;;5117525;27;20463;-73
2021/03/24 05:03:06;;;;;;;67.87;38.40;;;2.00;99.90;;;;;;5120977;27;20459;-73
2021/03/24 05:05:36;;;;;;;72.03;40.17;;;2.10;99.90;;;;;;5124892;27;20459;-73
2021/03/24 05:08:08;;;;;;;59.77;39.60;;;2.10;99.90;;;;;;5126839;27;20521;-73
2021/03/24 05:10:35;;;;;;;72.13;39.53;;;2.10;99.90;;;;;;5124857;27;20470;-73
2021/03/24 05:13:12;;;;;;;63.27;37.93;;;1.90;99.90;;;;;;5123318;27;20451;-73
2021/03/24 05:15:42;;;;;;;65.87;39.47;;;1.80;99.90;;;;;;5113869;27;20513;-73
2021/03/24 05:18:13;;;;;;;61.53;39.43;;;1.80;99.90;;;;;;5123944;27;20498;-73
2021/03/24 05:20:46;;;;;;;60.90;38.27;;;1.80;99.90;;;;;;5115965;27;20484;-73
2021/03/24 05:23:16;;;;;;;64.63;38.47;;;1.70;99.90;;;;;;5120118;27;20468;-73
2021/03/24 05:25:46;;;;;;;72.53;41.17;;;1.60;99.90;;;;;;5121471;27;20468;-73
2021/03/24 05:28:16;;;;;;;67.93;38.47;;;1.70;99.90;;;;;;5119771;27;20472;-73
2021/03/24 05:30:50;;;;;;;79.60;42.83;;;1.70;99.90;;;;;;5118800;27;20509;-73
2021/03/24 05:33:22;;;;;;;67.77;37.30;;;1.60;99.90;;;;;;5118944;27;21017;-73
2021/03/24 05:35:58;;;;;;;68.93;38.57;;;1.60;99.90;;;;;;5121567;27;20491;-73
2021/03/24 05:38:30;;;;;;;52.37;36.20;;;1.50;99.90;;;;;;5120763;27;20491;-73
2021/03/24 05:41:06;;;;;;;60.10;38.27;;;1.40;99.90;;;;;;5113158;27;20564;-73
2021/03/24 05:44:01;;;;;;;53.53;37.63;;;1.40;99.90;;;;;;5117998;27;20464;-73
2021/03/24 05:46:42;;;;;;;64.13;39.63;;;1.40;99.90;;;;;;5114593;27;20946;-73
2021/03/24 05:49:25;;;;;;;69.10;39.00;;;1.50;99.90;;;;;;5120899;27;20464;-73
2021/03/24 05:52:02;;;;;;;59.40;37.77;;;1.50;99.90;;;;;;5114956;27;20471;-73
2021/03/24 05:54:52;;;;;;;59.20;37.67;;;1.50;99.90;;;;;;5122059;27;20539;-74
2021/03/24 05:58:02;;;;;;;56.73;37.03;;;1.50;99.90;;;;;;5120806;27;20578;-74
2021/03/24 06:00:35;;;;;;;57.37;37.50;;;1.60;99.90;;;;;;5058611;28;20500;-74
2021/03/24 06:03:15;;;;;;;65.30;39.10;;;1.60;99.90;;;;;;5109363;27;20814;-74
2021/03/24 06:06:09;;;;;;;61.47;37.20;;;1.60;99.90;;;;;;5119459;27;20463;-74
2021/03/24 06:09:07;;;;;;;63.13;38.40;;;1.70;99.90;;;;;;5117370;27;20560;-74
2021/03/24 06:12:01;;;;;;;61.37;38.47;;;1.70;99.90;;;;;;5116475;27;20468;-74
2021/03/24 06:15:00;;;;;;;69.43;36.70;;;1.80;99.90;;;;;;5113791;27;20456;-74
2021/03/24 06:17:52;;;;;;;58.03;36.87;;;1.90;99.90;;;;;;5109267;27;20487;-74
2021/03/24 06:20:35;;;;;;;55.37;38.00;;;1.90;99.90;;;;;;5118648;27;20512;-74
2021/03/24 06:23:38;;;;;;;55.70;36.17;;;2.10;99.90;;;;;;5114017;27;20479;-74
2021/03/24 06:26:33;;;;;;;61.13;37.83;;;2.20;99.90;;;;;;5118385;27;20955;-74
2021/03/24 06:29:09;;;;;;;52.63;36.13;;;2.20;99.90;;;;;;5116609;27;20487;-73
2021/03/24 06:31:50;;;;;;;50.60;36.40;;;2.20;99.90;;;;;;5116605;27;20488;-74
2021/03/24 06:34:38;;;;;;;66.73;37.80;;;2.30;99.90;;;;;;5124438;27;20465;-74
2021/03/24 06:37:29;;;;;;;54.87;37.97;;;2.30;99.90;;;;;;5121743;27;20485;-74
2021/03/24 06:40:11;;;;;;;72.30;37.90;;;2.40;99.90;;;;;;5121258;27;20506;-73
2021/03/24 06:42:46;;;;;;;68.53;36.93;;;2.50;99.90;;;;;;5099360;27;20469;-73
2021/03/24 06:45:38;;;;;;;68.67;42.40;;;2.70;99.90;;;;;;5119371;27;20547;-73
2021/03/24 06:48:17;;;;;;;64.43;38.97;;;2.80;99.90;;;;;;5123204;27;21149;-73
2021/03/24 06:51:21;;;;;;;68.83;41.03;;;3.10;99.90;;;;;;5122612;27;20544;-73
2021/03/24 06:54:13;;;;;;;73.70;41.33;;;3.20;99.90;;;;;;5113292;27;20471;-73
2021/03/24 06:57:02;;;;;;;80.50;41.17;;;3.40;99.90;;;;;;5111469;27;20456;-73
2021/03/24 07:00:01;;;;;;;73.50;42.33;;;3.60;99.90;;;;;;5099227;27;21155;-73
2021/03/24 07:02:57;;;;;;;83.47;40.10;;;3.80;99.90;;;;;;5107343;27;20469;-73
2021/03/24 07:06:00;;;;;;;80.47;42.20;;;3.90;99.90;;;;;;5108679;27;20463;-73
2021/03/24 07:08:49;;;;;;;82.53;41.83;;;4.10;99.90;;;;;;5111946;27;21124;-73
2021/03/24 07:11:56;;;;;;;68.40;41.50;;;4.20;99.90;;;;;;5112592;27;20479;-73
2021/03/24 07:14:42;;;;;;;79.07;47.17;;;4.40;99.90;;;;;;5112871;27;20822;-73
2021/03/24 07:17:48;;;;;;;64.17;44.30;;;4.60;99.90;;;;;;5113211;27;20488;-73
2021/03/24 07:20:45;;;;;;;73.20;43.07;;;4.70;99.90;;;;;;5065847;27;20465;-73
2021/03/24 07:23:37;;;;;;;76.30;47.47;;;4.90;99.90;;;;;;5108766;27;20467;-73
2021/03/24 07:26:06;;;;;;;66.67;42.70;;;5.10;99.90;;;;;;5075049;28;20458;-73
2021/03/24 07:29:02;;;;;;;81.30;44.73;;;5.20;99.90;;;;;;5117804;27;20533;-73
2021/03/24 07:31:59;;;;;;;63.87;45.37;;;5.30;99.90;;;;;;5120926;27;20460;-73
2021/03/24 07:34:46;;;;;;;77.17;44.73;;;5.40;99.90;;;;;;5107225;27;20458;-73
2021/03/24 07:37:45;;;;;;;78.70;44.83;;;5.50;99.90;;;;;;5109091;27;21058;-73
2021/03/24 07:40:48;;;;;;;75.80;44.37;;;5.60;99.90;;;;;;5118398;27;20882;-73
2021/03/24 07:43:40;;;;;;;61.13;40.90;;;5.70;99.90;;;;;;5121187;27;20457;-73
2021/03/24 07:46:30;;;;;;;67.10;44.03;;;5.90;99.90;;;;;;5118992;27;20544;-74
2021/03/24 07:49:18;;;;;;;67.40;42.47;;;6.00;99.90;;;;;;5101215;27;20457;-74
2021/03/24 07:52:03;;;;;;;69.40;41.40;;;6.20;99.90;;;;;;5113279;27;20457;-74
2021/03/24 07:54:36;;;;;;;75.03;42.20;;;6.30;99.90;;;;;;5110832;28;20450;-74
2021/03/24 07:57:11;;;;;;;72.33;43.87;;;6.50;99.90;;;;;;5110055;27;20959;-76
2021/03/24 07:59:44;;;;;;;66.73;41.40;;;6.60;99.90;;;;;;5117437;27;20470;-75
2021/03/24 08:02:43;;;;;;;69.33;42.37;;;6.70;99.90;;;;;;5109256;27;20458;-78
2021/03/24 08:05:34;;;;;;;69.77;39.70;;;6.80;99.90;;;;;;5114533;27;20514;-76
2021/03/24 08:08:11;;;;;;;69.90;41.80;;;6.90;99.90;;;;;;5113545;28;20879;-75
2021/03/24 08:10:50;;;;;;;66.27;40.93;;;7.10;99.90;;;;;;5110813;28;20565;-75
2021/03/24 08:13:46;;;;;;;58.00;38.57;;;7.30;99.90;;;;;;5111489;28;21025;-75
2021/03/24 08:16:34;;;;;;;56.67;36.70;;;7.40;99.90;;;;;;5112953;28;20459;-75
2021/03/24 08:19:19;;;;;;;65.07;41.17;;;7.60;99.90;;;;;;5081617;28;20571;-75
2021/03/24 08:22:00;;;;;;;66.43;39.23;;;7.70;99.90;;;;;;5118346;28;20584;-77
2021/03/24 08:24:44;;;;;;;65.63;39.73;;;7.80;99.90;;;;;;5116436;28;20490;-73
2021/03/24 08:27:15;;;;;;;59.10;38.77;;;7.90;99.90;;;;;;5118971;28;20475;-79
2021/03/24 08:29:49;;;;;;;71.93;38.20;;;8.00;99.90;;;;;;5101643;28;20464;-79
2021/03/24 08:32:35;;;;;;;62.70;39.93;;;8.20;99.90;;;;;;5103759;28;20470;-73
2021/03/24 08:35:25;;;;;;;69.53;39.53;;;8.40;99.90;;;;;;5102647;28;20959;-73
2021/03/24 08:38:21;;;;;;;58.40;38.57;;;8.50;99.90;;;;;;5100253;28;20494;-74
2021/03/24 08:41:29;;;;;;;69.00;40.23;;;8.70;99.90;;;;;;5101525;28;20486;-79
2021/03/24 08:44:02;;;;;;;53.27;37.93;;;8.80;99.90;;;;;;5072602;28;20894;-77
2021/03/24 08:46:33;;;;;;;57.63;40.70;;;9.00;99.90;;;;;;5107915;28;20464;-76
2021/03/24 08:49:04;;;;;;;53.37;38.60;;;9.10;99.90;;;;;;5103707;28;20585;-76
2021/03/24 08:51:53;;;;;;;52.20;37.30;;;9.30;99.90;;;;;;5116354;28;20832;-75
2021/03/24 08:54:58;;;;;;;53.80;38.13;;;9.40;99.90;;;;;;5105972;28;20843;-76
2021/03/24 08:57:37;;;;;;;57.13;35.87;;;9.60;99.90;;;;;;5109810;28;20503;-76
2021/03/24 09:00:17;;;;;;;65.07;37.90;;;9.70;99.90;;;;;;5107259;28;20461;-75
2021/03/24 09:02:56;;;;;;;54.17;36.43;;;10.00;99.90;;;;;;5100868;28;20817;-75
2021/03/24 09:05:27;;;;;;;51.47;35.93;;;10.10;99.90;;;;;;5105834;28;21543;-76
2021/03/24 09:08:15;;;;;;;51.50;37.00;;;10.20;99.90;;;;;;5101208;27;20562;-75
2021/03/24 09:10:55;;;;;;;55.73;35.17;;;10.30;99.90;;;;;;5089877;27;20492;-79
2021/03/24 09:13:29;;;;;;;49.30;37.23;;;10.40;99.90;;;;;;5107671;27;20461;-77
2021/03/24 09:16:33;;;;;;;55.40;36.47;;;10.50;99.90;;;;;;5107969;27;20984;-76
2021/03/24 09:19:16;;;;;;;54.30;37.00;;;10.70;99.90;;;;;;5108152;27;20488;-76
2021/03/24 09:21:51;;;;;;;49.97;36.87;;;10.90;99.90;;;;;;5109265;27;21164;-76
2021/03/24 09:24:54;;;;;;;56.43;37.73;;;11.10;99.90;;;;;;5099111;27;20486;-76
2021/03/24 09:27:54;;;;;;;49.33;36.47;;;11.30;99.90;;;;;;4997951;28;20465;-76
2021/03/24 09:30:57;;;;;;;47.53;33.50;;;11.50;99.90;;;;;;5119027;27;20459;-75
2021/03/24 09:33:46;;;;;;;44.83;35.53;;;11.70;99.90;;;;;;5114143;27;20817;-76
2021/03/24 09:36:35;;;;;;;47.63;33.50;;;11.80;99.90;;;;;;5098746;27;20485;-78
2021/03/24 09:39:16;;;;;;;48.30;34.27;;;12.10;99.90;;;;;;5112398;27;20497;-77
2021/03/24 09:41:51;;;;;;;44.57;33.70;;;12.80;99.90;;;;;;5117666;27;20833;-76
2021/03/24 09:44:25;;;;;;;48.83;34.10;;;13.70;99.90;;;;;;5111145;27;20496;-76
2021/03/24 09:46:54;;;;;;;44.43;33.77;;;14.40;99.90;;;;;;5115042;27;20460;-75
2021/03/24 09:49:26;;;;;;;54.80;35.53;;;14.70;99.90;;;;;;5113985;27;20469;-77
2021/03/24 09:52:27;;;;;;;49.87;34.27;;;15.40;99.90;;;;;;5109443;27;20513;-76
2021/03/24 09:55:20;;;;;;;44.73;35.03;;;15.70;99.90;;;;;;5110877;27;20469;-74
2021/03/24 09:58:04;;;;;;;43.70;33.27;;;15.40;99.90;;;;;;5104754;27;20575;-74
2021/03/24 10:00:36;;;;;;;44.83;33.80;;;15.60;99.90;;;;;;5110670;27;20456;-75
2021/03/24 10:03:10;;;;;;;43.63;32.10;;;15.60;99.90;;;;;;5111430;27;20544;-75
2021/03/24 10:05:40;;;;;;;47.33;35.73;;;15.80;99.90;;;;;;5112406;27;20514;-75
2021/03/24 10:08:12;;;;;;;42.80;34.37;;;15.60;99.90;;;;;;5112997;27;20571;-75
2021/03/24 10:10:39;;;;;;;42.00;32.60;;;15.90;99.90;;;;;;5112474;27;20490;-75
2021/03/24 10:13:18;;;;;;;39.73;34.23;;;16.00;99.90;;;;;;5114284;27;20475;-75
2021/03/24 10:15:48;;;;;;;45.40;36.20;;;16.00;99.90;;;;;;5109658;27;20461;-76
2021/03/24 10:18:23;;;;;;;41.53;35.50;;;16.50;99.90;;;;;;5113567;27;20583;-74
2021/03/24 10:20:59;;;;;;;41.63;33.97;;;17.00;99.90;;;;;;5113816;27;20487;-75
2021/03/24 10:23:29;;;;;;;43.00;34.37;;;17.20;99.90;;;;;;5109790;27;20471;-76
2021/03/24 10:26:11;;;;;;;39.40;31.50;;;17.30;99.90;;;;;;5107519;27;20828;-76
2021/03/24 10:28:42;;;;;;;41.23;33.07;;;17.20;99.90;;;;;;5106438;27;20460;-75
2021/03/24 10:31:15;;;;;;;40.47;32.20;;;16.80;99.90;;;;;;5107447;27;20466;-75
2021/03/24 10:33:47;;;;;;;42.07;33.33;;;16.50;99.90;;;;;;5108506;27;20540;-76
2021/03/24 10:36:21;;;;;;;44.00;33.87;;;16.30;99.90;;;;;;5104368;27;20461;-77
2021/03/24 10:38:58;;;;;;;45.07;31.13;;;16.20;99.90;;;;;;5105515;27;20537;-75
2021/03/24 10:41:48;;;;;;;50.77;34.40;;;16.70;99.90;;;;;;5108919;27;20452;-75
2021/03/24 10:44:21;;;;;;;42.30;33.83;;;17.70;99.90;;;;;;5109495;27;20467;-78
2021/03/24 10:47:03;;;;;;;40.33;32.23;;;18.00;99.90;;;;;;5106318;27;20455;-78
2021/03/24 10:49:36;;;;;;;46.17;35.43;;;17.90;99.90;;;;;;5099292;27;20453;-75
2021/03/24 10:52:08;;;;;;;40.90;33.17;;;18.00;99.90;;;;;;5102553;27;20952;-75
2021/03/24 10:54:37;;;;;;;41.73;33.07;;;17.90;99.90;;;;;;5107045;27;20445;-76
2021/03/24 10:57:25;;;;;;;40.63;32.00;;;18.40;99.90;;;;;;5103892;27;20476;-76
2021/03/24 11:00:02;;;;;;;42.53;33.93;;;18.10;99.90;;;;;;5105481;27;20553;-75
2021/03/24 11:02:33;;;;;;;47.13;33.97;;;18.20;99.90;;;;;;5114496;27;20487;-75
2021/03/24 11:05:05;;;;;;;41.80;35.30;;;17.30;99.90;;;;;;5107652;27;20464;-76
2021/03/24 11:07:37;;;;;;;40.97;33.73;;;17.80;99.90;;;;;;5108870;27;20492;-77
2021/03/24 11:10:34;;;;;;;43.00;34.83;;;17.50;99.90;;;;;;5114412;27;20507;-73
2021/03/24 11:13:05;;;;;;;37.67;33.30;;;17.80;99.90;;;;;;5109647;27;20532;-74
2021/03/24 11:15:50;;;;;;;41.93;31.37;;;18.60;99.90;;;;;;5109585;27;20826;-74
2021/03/24 11:18:21;;;;;;;40.90;33.27;;;19.40;99.20;;;;;;5095386;27;20591;-74
2021/03/24 11:20:51;;;;;;;36.47;32.57;;;19.10;98.30;;;;;;5095325;27;20488;-73
2021/03/24 11:23:25;;;;;;;38.70;31.97;;;19.20;98.20;;;;;;5104219;27;20460;-73
2021/03/24 11:26:54;;;;;;;38.50;32.97;;;18.50;97.90;;;;;;5104863;27;20457;-74
2021/03/24 11:29:24;;;;;;;41.17;33.80;;;18.50;99.90;;;;;;5094273;28;20461;-75
2021/03/24 11:32:00;;;;;;;41.53;30.60;;;19.00;98.70;;;;;;5104159;27;20878;-74
2021/03/24 11:34:33;;;;;;;43.83;36.30;;;18.10;98.10;;;;;;5104582;27;20468;-73
2021/03/24 11:37:06;;;;;;;37.97;33.80;;;18.90;98.40;;;;;;5098517;27;20461;-75
2021/03/24 11:39:35;;;;;;;36.73;32.20;;;19.40;98.00;;;;;;5106095;27;20895;-76
2021/03/24 11:42:10;;;;;;;42.70;33.37;;;19.50;97.00;;;;;;5100560;27;21127;-75
2021/03/24 11:44:38;;;;;;;38.33;31.50;;;19.00;98.00;;;;;;5109398;27;20512;-76
2021/03/24 11:47:15;;;;;;;37.07;31.93;;;19.60;97.70;;;;;;5105070;27;20463;-77
2021/03/24 11:49:50;;;;;;;36.87;29.93;;;19.50;97.70;;;;;;5105301;27;20471;-73
2021/03/24 11:52:34;;;;;;;36.50;32.27;;;19.30;96.70;;;;;;5106410;27;20551;-75
2021/03/24 11:55:16;;;;;;;37.60;32.83;;;20.10;96.50;;;;;;5110558;27;20843;-74
2021/03/24 11:57:52;;;;;;;35.63;30.70;;;20.00;96.70;;;;;;5108171;27;20515;-74
2021/03/24 12:00:41;;;;;;;38.53;32.17;;;19.70;95.20;;;;;;5108759;27;20813;-74
2021/03/24 12:03:16;;;;;;;39.97;32.83;;;19.60;95.60;;;;;;5106520;28;20903;-73
2021/03/24 12:05:53;;;;;;;37.43;33.47;;;19.50;96.00;;;;;;5104598;28;20455;-74
2021/03/24 12:08:30;;;;;;;36.07;31.00;;;19.30;96.50;;;;;;5108373;28;20480;-79
2021/03/24 12:11:01;;;;;;;36.77;30.60;;;19.40;96.30;;;;;;5109505;28;20833;-74
2021/03/24 12:13:31;;;;;;;35.20;30.57;;;19.50;95.60;;;;;;5105086;28;20878;-75
2021/03/24 12:16:04;;;;;;;33.20;29.70;;;19.40;95.70;;;;;;5105487;28;21083;-78
2021/03/24 12:18:45;;;;;;;36.53;30.43;;;19.70;96.20;;;;;;5101964;28;20999;-77
2021/03/24 12:21:29;;;;;;;38.90;33.87;;;20.40;95.00;;;;;;5104251;28;20489;-77
2021/03/24 12:23:58;;;;;;;39.33;33.00;;;20.80;94.10;;;;;;5107640;28;20588;-75
2021/03/24 12:26:29;;;;;;;34.30;30.63;;;20.50;94.60;;;;;;5106895;28;20487;-74
2021/03/24 12:29:04;;;;;;;37.80;32.73;;;21.10;94.40;;;;;;5107358;28;20875;-74
2021/03/24 12:31:31;;;;;;;36.30;32.67;;;21.10;93.40;;;;;;5109976;28;21505;-77
2021/03/24 12:34:01;;;;;;;40.77;34.67;;;21.10;93.30;;;;;;5109566;28;21022;-75
2021/03/24 12:36:30;;;;;;;38.13;31.23;;;21.50;93.30;;;;;;5105207;28;21001;-74
2021/03/24 12:39:00;;;;;;;45.40;34.80;;;20.80;92.30;;;;;;5108824;28;20497;-73
2021/03/24 12:41:32;;;;;;;39.70;31.97;;;20.90;93.00;;;;;;5105819;28;20468;-73
2021/03/24 12:44:18;;;;;;;38.87;31.23;;;20.30;93.70;;;;;;5115470;27;20490;-72
2021/03/24 12:46:51;;;;;;;36.87;30.50;;;20.50;93.10;;;;;;5105343;27;20825;-76
2021/03/24 12:49:21;;;;;;;34.70;30.70;;;20.60;93.80;;;;;;5107744;27;20518;-73
2021/03/24 12:51:54;;;;;;;36.33;31.63;;;20.90;91.90;;;;;;5114067;27;20551;-74
2021/03/24 12:54:22;;;;;;;35.23;31.40;;;21.50;91.80;;;;;;5108651;27;20472;-79
2021/03/24 12:57:17;;;;;;;37.23;31.07;;;21.10;91.40;;;;;;5109691;27;20863;-74
2021/03/24 13:00:07;;;;;;;34.20;29.93;;;21.20;93.00;;;;;;5104687;27;20942;-73
2021/03/24 13:02:58;;;;;;;37.20;31.60;;;20.70;92.10;;;;;;5110107;27;20465;-74
2021/03/24 13:05:39;;;;;;;33.93;30.43;;;20.20;92.90;;;;;;5104622;27;20465;-75
2021/03/24 13:08:14;;;;;;;35.30;31.33;;;21.00;92.00;;;;;;5109212;27;20486;-74
2021/03/24 13:10:49;;;;;;;35.00;31.30;;;21.50;92.20;;;;;;5113343;27;20452;-78
2021/03/24 13:13:41;;;;;;;34.40;30.80;;;21.50;90.80;;;;;;5112629;27;20461;-73
2021/03/24 13:16:15;;;;;;;36.53;32.60;;;20.30;91.00;;;;;;5111913;27;20565;-73
2021/03/24 13:18:46;;;;;;;38.20;34.10;;;20.50;92.30;;;;;;5107411;27;20480;-73
2021/03/24 13:21:33;;;;;;;36.30;31.87;;;20.30;92.80;;;;;;5106529;27;20488;-73